createdAt,value
2019-05-15T00:01:49.817Z,6.78
2019-05-15T00:04:20.818Z,6.70
2019-05-15T00:06:52.612Z,6.70
2019-05-15T00:09:24.232Z,6.68
2019-05-15T00:11:55.754Z,6.75
2019-05-15T00:14:28.783Z,6.76
2019-05-15T00:16:59.419Z,6.87
2019-05-15T00:19:30.432Z,6.88
2019-05-15T00:22:02.364Z,6.85
2019-05-15T00:24:33.345Z,6.69
2019-05-15T00:27:04.148Z,6.60
2019-05-15T00:29:35.153Z,6.47
2019-05-15T00:32:05.892Z,6.45
2019-05-15T00:34:37.899Z,6.31
2019-05-15T00:37:09.127Z,6.24
2019-05-15T00:39:39.801Z,6.20
2019-05-15T00:42:10.860Z,6.15
2019-05-15T00:44:41.639Z,6.04
2019-05-15T00:47:12.364Z,5.96
2019-05-15T00:49:43.343Z,5.86
2019-05-15T00:52:14.368Z,5.92
2019-05-15T00:54:45.140Z,5.87
2019-05-15T00:57:16.116Z,5.83
2019-05-15T00:59:48.356Z,5.75
2019-05-15T01:02:19.191Z,5.78
2019-05-15T01:04:50.026Z,5.70
2019-05-15T01:07:21.080Z,5.71
2019-05-15T01:09:52.048Z,5.65
2019-05-15T01:12:22.777Z,5.70
2019-05-15T01:14:53.831Z,5.69
2019-05-15T01:17:24.797Z,5.71
2019-05-15T01:19:55.784Z,5.68
2019-05-15T01:22:28.624Z,5.66
2019-05-15T01:24:59.964Z,5.60
2019-05-15T01:27:30.676Z,5.57
2019-05-15T01:30:01.415Z,5.51
2019-05-15T01:32:33.461Z,5.48
2019-05-15T01:35:04.275Z,5.41
2019-05-15T01:37:35.004Z,5.41
2019-05-15T01:40:05.862Z,5.33
2019-05-15T01:42:38.607Z,5.33
2019-05-15T01:45:09.808Z,5.24
2019-05-15T01:47:40.536Z,5.17
2019-05-15T01:50:11.690Z,5.24
2019-05-15T01:52:42.654Z,5.09
2019-05-15T01:55:14.112Z,4.94
2019-05-15T01:57:45.086Z,4.89
2019-05-15T02:00:18.689Z,4.86
2019-05-15T02:02:49.085Z,4.92
2019-05-15T02:05:19.956Z,4.79
2019-05-15T02:07:50.675Z,4.71
2019-05-15T02:10:21.732Z,4.61
2019-05-15T02:12:52.457Z,4.60
2019-05-15T02:15:23.397Z,4.52
2019-05-15T02:17:54.604Z,4.43
2019-05-15T02:20:25.346Z,4.53
2019-05-15T02:22:56.159Z,4.59
2019-05-15T02:25:28.031Z,4.56
2019-05-15T02:27:59.118Z,4.54
2019-05-15T02:30:34.174Z,4.64
2019-05-15T02:33:02.774Z,4.67
2019-05-15T02:35:34.022Z,4.74
2019-05-15T02:38:04.826Z,4.68
2019-05-15T02:40:35.560Z,4.64
2019-05-15T02:43:09.599Z,4.64
2019-05-15T02:45:42.242Z,4.55
2019-05-15T02:48:12.430Z,4.48
2019-05-15T02:50:43.166Z,4.39
2019-05-15T02:53:14.385Z,4.44
2019-05-15T02:55:45.603Z,4.37
2019-05-15T02:58:21.454Z,4.34
2019-05-15T03:00:53.188Z,4.31
2019-05-15T03:03:21.736Z,4.39
2019-05-15T03:05:52.776Z,4.39
2019-05-15T03:08:23.924Z,4.33
2019-05-15T03:10:54.661Z,4.24
2019-05-15T03:13:25.695Z,4.17
2019-05-15T03:15:59.987Z,4.17
2019-05-15T03:18:29.643Z,4.01
2019-05-15T03:21:00.657Z,3.94
2019-05-15T03:23:31.706Z,3.92
2019-05-15T03:26:04.333Z,3.82
2019-05-15T03:28:35.356Z,3.79
2019-05-15T03:31:24.813Z,3.76
2019-05-15T03:33:45.541Z,3.77
2019-05-15T03:36:13.945Z,3.68
2019-05-15T03:38:44.769Z,3.72
2019-05-15T03:41:15.520Z,3.72
2019-05-15T03:43:49.307Z,3.87
2019-05-15T03:46:20.179Z,3.85
2019-05-15T03:48:50.977Z,3.81
2019-05-15T03:51:22.239Z,3.79
2019-05-15T03:53:53.039Z,3.78
2019-05-15T03:56:24.171Z,3.79
2019-05-15T03:58:54.899Z,3.84
2019-05-15T04:01:34.054Z,3.82
2019-05-15T04:03:59.816Z,3.86
2019-05-15T04:06:31.267Z,3.93
2019-05-15T04:09:01.991Z,3.93
2019-05-15T04:11:38.569Z,3.92
2019-05-15T04:14:10.241Z,3.95
2019-05-15T04:16:41.398Z,4.05
2019-05-15T04:19:12.605Z,4.15
2019-05-15T04:21:45.144Z,4.19
2019-05-15T04:24:18.991Z,4.30
2019-05-15T04:26:50.598Z,4.28
2019-05-15T04:29:21.552Z,4.27
2019-05-15T04:32:01.060Z,4.27
2019-05-15T04:34:24.956Z,4.28
2019-05-15T04:36:58.695Z,4.29
2019-05-15T04:39:29.582Z,4.36
2019-05-15T04:42:00.464Z,4.32
2019-05-15T04:44:31.472Z,4.33
2019-05-15T04:47:02.485Z,4.39
2019-05-15T04:49:33.507Z,4.50
2019-05-15T04:52:04.343Z,4.62
2019-05-15T04:54:35.539Z,4.67
2019-05-15T04:57:09.262Z,4.68
2019-05-15T04:59:39.434Z,4.78
2019-05-15T05:02:17.556Z,4.83
2019-05-15T05:04:42.737Z,4.83
2019-05-15T05:07:13.699Z,4.88
2019-05-15T05:09:44.424Z,5.02
2019-05-15T05:12:15.405Z,5.04
2019-05-15T05:14:48.433Z,5.08
2019-05-15T05:17:19.656Z,5.12
2019-05-15T05:19:51.461Z,5.20
2019-05-15T05:22:22.227Z,5.26
2019-05-15T05:24:53.038Z,5.39
2019-05-15T05:27:23.993Z,5.49
2019-05-15T05:29:55.027Z,5.61
2019-05-15T05:32:34.354Z,5.66
2019-05-15T05:34:58.968Z,5.81
2019-05-15T05:37:30.771Z,5.91
2019-05-15T05:40:01.811Z,6.07
2019-05-15T05:42:32.893Z,6.29
2019-05-15T05:45:03.718Z,6.28
2019-05-15T05:47:34.946Z,6.49
2019-05-15T05:50:07.964Z,6.65
2019-05-15T05:52:39.271Z,6.89
2019-05-15T05:55:10.108Z,7.27
2019-05-15T05:57:40.848Z,7.49
2019-05-15T06:00:11.748Z,7.48
2019-05-15T06:02:47.571Z,7.73
2019-05-15T06:05:15.203Z,8.06
2019-05-15T06:07:48.768Z,8.04
2019-05-15T06:10:19.553Z,8.06
2019-05-15T06:12:50.547Z,8.30
2019-05-15T06:15:21.508Z,8.42
2019-05-15T06:17:52.249Z,8.65
2019-05-15T06:20:23.295Z,8.67
2019-05-15T06:22:54.100Z,8.68
2019-05-15T06:25:24.903Z,8.79
2019-05-15T06:27:55.632Z,8.81
2019-05-15T06:30:30.733Z,8.97
2019-05-15T06:33:08.519Z,9.12
2019-05-15T06:35:33.728Z,9.21
2019-05-15T06:38:04.615Z,9.37
2019-05-15T06:40:35.365Z,9.47
2019-05-15T06:43:08.603Z,9.37
2019-05-15T06:45:40.055Z,9.43
2019-05-15T06:48:10.792Z,9.70
2019-05-15T06:50:42.304Z,9.85
2019-05-15T06:53:13.296Z,9.94
2019-05-15T06:55:44.104Z,9.99
2019-05-15T06:58:14.848Z,10.02
2019-05-15T07:00:48.420Z,10.47
2019-05-15T07:03:25.414Z,10.58
2019-05-15T07:05:51.332Z,10.90
2019-05-15T07:08:22.362Z,11.59
2019-05-15T07:10:53.561Z,11.75
2019-05-15T07:13:24.609Z,12.14
2019-05-15T07:15:55.361Z,11.98
2019-05-15T07:18:28.253Z,12.24
2019-05-15T07:20:58.568Z,12.98
2019-05-15T07:23:30.947Z,12.74
2019-05-15T07:26:01.643Z,13.06
2019-05-15T07:28:32.392Z,13.34
2019-05-15T07:31:03.159Z,13.48
2019-05-15T07:33:39.684Z,13.66
2019-05-15T07:36:08.441Z,13.76
2019-05-15T07:38:39.379Z,13.76
2019-05-15T07:41:10.609Z,13.57
2019-05-15T07:43:41.462Z,13.58
2019-05-15T07:46:12.243Z,13.46
2019-05-15T07:48:44.017Z,13.00
2019-05-15T07:51:14.889Z,13.55
2019-05-15T07:53:48.724Z,13.08
2019-05-15T07:56:20.456Z,13.67
2019-05-15T07:58:58.712Z,13.54
2019-05-15T08:01:31.783Z,13.56
2019-05-15T08:04:22.762Z,13.73
2019-05-15T08:06:43.748Z,13.74
2019-05-15T08:09:21.723Z,12.83
2019-05-15T08:11:54.467Z,12.61
2019-05-15T08:14:25.465Z,13.03
2019-05-15T08:16:58.994Z,12.48
2019-05-15T08:19:29.065Z,12.57
2019-05-15T08:21:59.889Z,12.24
2019-05-15T08:24:30.637Z,12.33
2019-05-15T08:27:02.068Z,12.57
2019-05-15T08:29:33.082Z,12.45
2019-05-15T08:32:04.017Z,12.64
2019-05-15T08:34:35.992Z,12.76
2019-05-15T08:37:07.977Z,12.99
2019-05-15T08:39:39.353Z,12.74
2019-05-15T08:42:11.936Z,13.38
2019-05-15T08:44:42.965Z,13.19
2019-05-15T08:47:13.985Z,13.13
2019-05-15T08:49:45.294Z,13.27
2019-05-15T08:52:18.731Z,13.32
2019-05-15T08:54:49.116Z,13.36
2019-05-15T08:57:20.705Z,13.55
2019-05-15T08:59:51.508Z,13.59
2019-05-15T09:02:22.327Z,13.21
2019-05-15T09:04:53.419Z,13.32
2019-05-15T09:07:24.436Z,13.86
2019-05-15T09:09:55.242Z,13.68
2019-05-15T09:12:25.994Z,13.70
2019-05-15T09:14:58.220Z,13.61
2019-05-15T09:17:29.474Z,13.78
2019-05-15T09:20:00.537Z,14.25
2019-05-15T09:22:31.293Z,13.80
2019-05-15T09:25:02.196Z,14.20
2019-05-15T09:27:33.456Z,14.29
2019-05-15T09:30:04.645Z,13.99
2019-05-15T09:32:35.467Z,14.01
2019-05-15T09:35:08.369Z,14.00
2019-05-15T09:37:39.602Z,14.33
2019-05-15T09:40:11.030Z,14.37
2019-05-15T09:42:42.032Z,14.60
2019-05-15T09:45:13.416Z,14.61
2019-05-15T09:47:44.769Z,14.49
2019-05-15T09:50:19.097Z,14.81
2019-05-15T09:52:50.329Z,14.79
2019-05-15T09:55:21.210Z,15.02
2019-05-15T09:57:54.886Z,15.16
2019-05-15T10:00:24.907Z,14.80
2019-05-15T10:02:55.689Z,15.04
2019-05-15T10:05:28.099Z,14.83
2019-05-15T10:07:59.040Z,14.73
2019-05-15T10:10:29.797Z,15.20
2019-05-15T10:13:00.797Z,15.15
2019-05-15T10:15:31.702Z,15.22
2019-05-15T10:18:02.443Z,15.41
2019-05-15T10:20:33.195Z,15.48
2019-05-15T10:23:04.277Z,15.79
2019-05-15T10:25:35.111Z,15.68
2019-05-15T10:28:06.188Z,15.73
2019-05-15T10:30:39.250Z,15.62
2019-05-15T10:33:09.672Z,15.58
2019-05-15T10:35:40.476Z,15.76
2019-05-15T10:38:22.308Z,15.06
2019-05-15T10:41:08.145Z,15.52
2019-05-15T10:43:46.133Z,16.13
2019-05-15T10:46:14.353Z,16.50
2019-05-15T10:48:49.924Z,16.25
2019-05-15T10:51:28.433Z,16.08
2019-05-15T10:54:08.554Z,16.03
2019-05-15T10:56:41.481Z,16.66
2019-05-15T10:59:18.423Z,16.05
2019-05-15T11:01:51.735Z,16.43
2019-05-15T11:04:28.867Z,16.19
2019-05-15T11:07:01.513Z,16.04
2019-05-15T11:09:37.502Z,16.17
2019-05-15T11:12:10.504Z,16.59
2019-05-15T11:14:47.332Z,16.88
2019-05-15T11:17:21.024Z,16.32
2019-05-15T11:20:00.476Z,16.34
2019-05-15T11:22:42.868Z,15.93
2019-05-15T11:25:14.535Z,16.12
2019-05-15T11:27:48.601Z,16.44
2019-05-15T11:30:23.069Z,16.28
2019-05-15T11:32:58.599Z,16.50
2019-05-15T11:35:30.885Z,16.36
2019-05-15T11:38:03.454Z,16.50
2019-05-15T11:40:38.943Z,16.82
2019-05-15T11:43:12.297Z,16.54
2019-05-15T11:45:48.559Z,16.55
2019-05-15T11:48:21.756Z,16.81
2019-05-15T11:50:57.721Z,16.89
2019-05-15T11:53:30.799Z,16.69
2019-05-15T11:56:12.489Z,17.09
2019-05-15T11:58:45.375Z,17.02
2019-05-15T12:01:19.827Z,17.02
2019-05-15T12:03:53.548Z,16.96
2019-05-15T12:06:29.174Z,16.92
2019-05-15T12:09:02.311Z,16.56
2019-05-15T12:11:40.496Z,17.01
2019-05-15T12:14:12.618Z,16.56
2019-05-15T12:17:02.287Z,17.01
2019-05-15T12:19:21.861Z,16.77
2019-05-15T12:21:59.607Z,17.08
2019-05-15T12:27:15.221Z,17.33
2019-05-15T12:29:44.058Z,17.75
2019-05-15T12:32:31.215Z,18.12
2019-05-15T12:35:00.025Z,18.39
2019-05-15T12:37:33.141Z,18.06
2019-05-15T13:00:54.754Z,17.98
2019-05-15T13:03:28.883Z,17.84
2019-05-15T13:06:01.549Z,17.89
2019-05-15T13:08:34.926Z,18.39
2019-05-15T13:11:09.788Z,17.74
2019-05-15T13:13:43.211Z,18.22
2019-05-15T13:16:18.398Z,18.03
2019-05-15T13:18:52.461Z,17.73
2019-05-15T13:21:25.171Z,17.00
2019-05-15T13:23:58.667Z,16.69
2019-05-15T13:26:32.550Z,17.21
2019-05-15T13:29:05.096Z,17.89
2019-05-15T13:31:40.499Z,18.30
2019-05-15T13:34:19.410Z,17.97
2019-05-15T13:36:49.343Z,18.01
2019-05-15T13:39:22.122Z,17.84
2019-05-15T13:41:54.642Z,17.35
2019-05-15T13:44:29.363Z,17.85
2019-05-15T13:47:01.593Z,18.11
2019-05-15T13:49:38.570Z,18.13
2019-05-15T13:52:13.867Z,18.43
2019-05-15T13:54:48.242Z,18.50
2019-05-15T13:57:20.514Z,18.41
2019-05-15T13:59:53.598Z,18.54
2019-05-15T14:02:28.782Z,18.74
2019-05-15T14:05:05.509Z,18.54
2019-05-15T14:07:49.385Z,18.46
2019-05-15T14:10:17.978Z,18.43
2019-05-15T14:12:49.642Z,18.59
2019-05-15T14:15:22.170Z,18.55
2019-05-15T14:17:54.385Z,18.20
2019-05-15T14:20:30.141Z,18.10
2019-05-15T14:23:08.645Z,17.73
2019-05-15T14:25:39.800Z,18.36
2019-05-15T14:28:13.248Z,18.42
2019-05-15T14:30:45.694Z,17.83
2019-05-15T14:33:16.714Z,16.91
2019-05-15T14:35:48.438Z,16.59
2019-05-15T14:38:19.488Z,16.87
2019-05-15T14:40:50.305Z,17.47
2019-05-15T14:43:21.062Z,17.08
2019-05-15T14:45:52.035Z,17.49
2019-05-15T14:48:22.962Z,17.63
2019-05-15T14:50:58.305Z,17.93
2019-05-15T14:53:29.675Z,17.94
2019-05-15T14:56:01.003Z,17.78
2019-05-15T14:58:31.750Z,17.79
2019-05-15T15:01:04.424Z,17.45
2019-05-15T15:03:38.007Z,17.72
2019-05-15T15:06:08.671Z,18.32
2019-05-15T15:08:39.565Z,18.57
2019-05-15T15:11:10.567Z,18.71
2019-05-15T15:13:41.551Z,18.22
2019-05-15T15:16:12.583Z,17.49
2019-05-15T15:18:43.656Z,17.41
2019-05-15T15:21:19.413Z,17.74
2019-05-15T15:23:48.254Z,17.93
2019-05-15T15:26:19.329Z,17.75
2019-05-15T15:28:54.182Z,17.96
2019-05-15T15:31:25.075Z,18.09
2019-05-15T15:33:57.904Z,17.80
2019-05-15T15:36:28.700Z,17.58
2019-05-15T15:39:09.580Z,17.30
2019-05-15T15:41:44.483Z,17.40
2019-05-15T15:44:15.693Z,17.12
2019-05-15T15:46:49.049Z,16.91
2019-05-15T15:49:24.184Z,17.16
2019-05-15T15:51:58.864Z,17.06
2019-05-15T15:57:05.437Z,17.32
2019-05-15T15:59:38.558Z,17.07
2019-05-15T16:02:09.354Z,17.13
2019-05-15T16:04:40.319Z,17.43
2019-05-15T16:07:11.302Z,17.46
2019-05-15T16:09:42.299Z,17.47
2019-05-15T16:12:13.617Z,17.49
2019-05-15T16:14:44.838Z,17.29
2019-05-15T16:17:18.080Z,17.51
2019-05-15T16:19:49.113Z,17.77
2019-05-15T16:22:20.028Z,17.97
2019-05-15T16:24:51.090Z,17.80
2019-05-15T16:27:22.070Z,17.52
2019-05-15T16:29:53.345Z,17.38
2019-05-15T16:32:24.102Z,17.87
2019-05-15T16:34:54.846Z,17.86
2019-05-15T16:37:25.601Z,18.09
2019-05-15T16:39:57.834Z,18.41
2019-05-15T16:42:29.341Z,18.72
2019-05-15T16:45:00.339Z,19.34
2019-05-15T16:47:31.321Z,18.79
2019-05-15T16:50:02.383Z,18.81
2019-05-15T16:52:33.235Z,18.43
2019-05-15T16:55:04.082Z,19.03
2019-05-15T16:57:35.286Z,18.29
2019-05-15T17:00:09.546Z,18.07
2019-05-15T17:02:40.001Z,17.32
2019-05-15T17:05:11.747Z,17.34
2019-05-15T17:07:42.564Z,17.26
2019-05-15T17:10:13.401Z,17.53
2019-05-15T17:12:44.550Z,16.66
2019-05-15T17:15:15.576Z,15.86
2019-05-15T17:17:48.684Z,15.58
2019-05-15T17:20:19.482Z,15.26
2019-05-15T17:22:50.447Z,15.10
2019-05-15T17:25:21.425Z,14.87
2019-05-15T17:27:52.175Z,14.66
2019-05-15T17:30:23.282Z,14.44
2019-05-15T17:32:54.113Z,14.01
2019-05-15T17:35:24.947Z,13.85
2019-05-15T17:37:58.113Z,13.76
2019-05-15T17:40:28.877Z,13.65
2019-05-15T17:43:05.904Z,13.53
2019-05-15T17:45:39.022Z,13.43
2019-05-15T17:48:12.332Z,13.12
2019-05-15T17:50:48.683Z,12.95
2019-05-15T17:53:18.200Z,12.84
2019-05-15T17:55:49.540Z,12.63
2019-05-15T17:58:20.611Z,12.75
2019-05-15T18:00:51.698Z,12.77
2019-05-15T18:03:23.221Z,12.41
2019-05-15T18:05:54.095Z,12.34
2019-05-15T18:08:24.834Z,12.33
2019-05-15T18:10:56.092Z,12.25
2019-05-15T18:13:28.764Z,12.06
2019-05-15T18:16:03.082Z,11.86
2019-05-15T18:18:33.613Z,11.81
2019-05-15T18:21:04.427Z,11.92
2019-05-15T18:23:35.627Z,12.03
2019-05-15T18:26:08.844Z,11.98
2019-05-15T18:28:39.053Z,11.97
2019-05-15T18:31:10.703Z,12.06
2019-05-15T18:33:53.537Z,12.07
2019-05-15T18:36:14.170Z,12.11
2019-05-15T18:38:48.296Z,12.04
2019-05-15T18:41:44.055Z,12.04
2019-05-15T18:44:14.809Z,12.16
2019-05-15T18:47:11.840Z,11.99
2019-05-15T18:50:09.683Z,12.08
2019-05-15T18:52:38.683Z,12.04
2019-05-15T18:55:28.718Z,12.05
2019-05-15T18:57:59.721Z,12.03
2019-05-15T19:00:30.716Z,11.98
2019-05-15T19:03:02.076Z,11.90
2019-05-15T19:05:33.048Z,11.84
2019-05-15T19:08:03.861Z,11.90
2019-05-15T19:10:34.673Z,11.83
2019-05-15T19:13:05.421Z,11.86
2019-05-15T19:15:37.948Z,11.77
2019-05-15T19:18:08.985Z,11.80
2019-05-15T19:20:39.789Z,11.76
2019-05-15T19:23:11.074Z,11.73
2019-05-15T19:25:42.039Z,11.75
2019-05-15T19:28:12.792Z,11.68
2019-05-15T19:34:13.494Z,11.67
2019-05-15T19:36:44.954Z,11.66
2019-05-15T19:39:15.749Z,11.51
2019-05-15T19:41:47.596Z,11.46
2019-05-15T19:44:18.597Z,11.38
2019-05-15T19:46:50.628Z,11.29
2019-05-15T19:49:21.376Z,11.18
2019-05-15T19:51:52.095Z,11.07
2019-05-15T19:54:22.836Z,10.98
2019-05-15T19:56:53.584Z,10.91
2019-05-15T19:59:25.998Z,10.92
2019-05-15T20:02:58.100Z,10.83
2019-05-15T20:05:54.105Z,10.78
2019-05-15T20:08:27.694Z,10.83
2019-05-15T20:10:59.310Z,10.79
2019-05-15T20:13:30.636Z,10.75
2019-05-15T20:16:01.755Z,10.78
2019-05-15T20:18:32.985Z,10.75
2019-05-15T20:21:03.717Z,10.70
2019-05-15T20:23:34.533Z,10.65
2019-05-15T20:26:05.265Z,10.64
2019-05-15T20:32:10.214Z,10.62
2019-05-15T20:34:40.974Z,10.65
2019-05-15T20:37:11.985Z,10.63
2019-05-15T20:39:42.887Z,10.60
2019-05-15T20:42:13.847Z,10.52
2019-05-15T20:44:45.014Z,10.64
2019-05-15T20:47:18.558Z,10.61
2019-05-15T20:49:48.706Z,10.59
2019-05-15T20:52:21.770Z,10.61
2019-05-15T20:54:53.569Z,10.57
2019-05-15T20:57:24.620Z,10.58
2019-05-15T20:59:55.795Z,10.64
2019-05-15T21:02:28.986Z,10.59
2019-05-15T21:05:01.021Z,10.59
2019-05-15T21:07:38.570Z,10.61
2019-05-15T21:10:04.858Z,10.60
2019-05-15T21:12:35.844Z,10.62
2019-05-15T21:15:08.552Z,10.56
2019-05-15T21:17:41.273Z,10.56
2019-05-15T21:20:12.199Z,10.55
2019-05-15T21:22:43.476Z,10.56
2019-05-15T21:25:14.751Z,10.61
2019-05-15T21:27:45.677Z,10.55
2019-05-15T21:30:18.953Z,10.50
2019-05-15T21:32:50.221Z,10.35
2019-05-15T21:35:20.944Z,10.32
2019-05-15T21:37:51.839Z,10.34
2019-05-15T21:40:22.565Z,10.39
2019-05-15T21:42:53.316Z,10.54
2019-05-15T21:45:24.108Z,10.42
2019-05-15T21:48:14.220Z,10.36
2019-05-15T21:50:48.159Z,10.29
2019-05-15T21:53:19.872Z,10.27
2019-05-15T21:55:50.865Z,10.22
2019-05-15T21:58:21.831Z,10.29
2019-05-15T22:00:54.265Z,10.28
2019-05-15T22:03:27.956Z,10.31
2019-05-15T22:05:58.854Z,10.32
2019-05-15T22:08:29.680Z,10.19
2019-05-15T22:15:00.501Z,10.12
2019-05-15T22:17:43.625Z,10.11
2019-05-15T22:20:54.144Z,10.05
2019-05-15T22:23:27.749Z,9.99
2019-05-15T22:26:58.720Z,9.96
2019-05-15T22:29:30.005Z,9.93
2019-05-15T22:32:00.795Z,9.81
2019-05-15T22:34:31.773Z,9.88
2019-05-15T22:37:02.581Z,9.79
2019-05-15T22:39:33.563Z,10.02
2019-05-15T22:42:04.392Z,10.03
2019-05-15T22:44:35.118Z,10.02
2019-05-15T22:47:05.865Z,9.96
2019-05-15T22:49:38.058Z,9.91
2019-05-15T22:52:09.121Z,9.78
2019-05-15T22:54:40.272Z,9.78
2019-05-15T22:57:11.019Z,9.94
2019-05-15T22:59:42.712Z,10.10
2019-05-15T23:02:13.463Z,10.06
2019-05-15T23:04:44.429Z,10.03
2019-05-15T23:07:15.160Z,9.91
2019-05-15T23:09:48.838Z,9.79
2019-05-15T23:12:19.023Z,9.74
2019-05-15T23:14:50.214Z,9.62
2019-05-15T23:17:20.956Z,9.61
2019-05-15T23:19:51.919Z,9.56
2019-05-15T23:22:22.654Z,9.53
2019-05-15T23:24:53.893Z,9.38
2019-05-15T23:27:24.638Z,9.34
2019-05-15T23:30:35.927Z,9.21
2019-05-15T23:36:28.516Z,9.23
2019-05-15T23:39:25.107Z,9.23
2019-05-15T23:41:58.325Z,9.21
2019-05-15T23:47:38.429Z,9.24
2019-05-15T23:50:08.828Z,9.28
2019-05-15T23:52:39.555Z,9.23
2019-05-15T23:55:10.689Z,9.20
2019-05-15T23:57:41.636Z,9.19
